Time;durP1;ratioP1;P1;durP2;ratioP2;P2;SDS_P1;SDS_P2;PMS_P1;PMS_P2;Temp;Humidity;BMP_temperature;BMP_pressure;BME280_temperature;BME280_humidity;BME280_pressure;Samples;Min_cycle;Max_cycle;Signal;HPM_P1;HPM_P2
2023/05/21 00:01:34;;;;;;;;;;;14.50;99.90;;;;;;5133137;27;19934;-65
2023/05/21 00:03:59;;;;;;;;;;;14.40;99.90;;;;;;5133250;27;20006;-66
2023/05/21 00:06:25;;;;;;;;;;;14.40;99.90;;;;;;5132864;27;20375;-65
2023/05/21 00:08:50;;;;;;;;;;;14.40;99.90;;;;;;5114542;27;20015;-65
2023/05/21 00:11:16;;;;;;;;;;;14.40;99.90;;;;;;5131911;27;19972;-65
2023/05/21 00:13:41;;;;;;;;;;;14.40;99.90;;;;;;5133023;27;19923;-66
2023/05/21 00:16:09;;;;;;;;;;;14.40;99.90;;;;;;5131607;27;19938;-68
2023/05/21 00:18:35;;;;;;;;;;;14.40;99.90;;;;;;5132962;27;19923;-65
2023/05/21 00:21:01;;;;;;;;;;;14.40;99.90;;;;;;5132945;27;19996;-65
2023/05/21 00:23:27;;;;;;;;;;;14.30;99.90;;;;;;5114534;28;20103;-65
2023/05/21 00:25:52;;;;;;;;;;;14.30;99.90;;;;;;5133002;28;19923;-66
2023/05/21 00:28:18;;;;;;;;;;;14.30;99.90;;;;;;5131569;28;20022;-65
2023/05/21 00:30:44;;;;;;;;;;;14.40;99.90;;;;;;5132433;27;20007;-65
2023/05/21 00:33:12;;;;;;;;;;;14.40;99.90;;;;;;5132650;27;20000;-68
2023/05/21 00:35:38;;;;;;;;;;;14.40;99.90;;;;;;5132865;27;19924;-65
2023/05/21 00:38:06;;;;;;;;;;;14.40;99.90;;;;;;5131927;28;19939;-65
2023/05/21 00:40:32;;;;;;;;;;;14.40;99.90;;;;;;5114832;28;19923;-65
2023/05/21 00:42:57;;;;;;;;;;;14.40;99.90;;;;;;5132569;27;19930;-65
2023/05/21 00:45:24;;;;;;;;;;;14.40;99.90;;;;;;5132517;27;20322;-66
2023/05/21 00:47:53;;;;;;;;;;;14.40;99.90;;;;;;5131354;28;19924;-67
2023/05/21 00:50:19;;;;;;;;;;;14.40;99.90;;;;;;5132432;27;20015;-66
2023/05/21 00:52:45;;;;;;;;;;;14.40;99.90;;;;;;5132506;27;20455;-66
2023/05/21 00:55:11;;;;;;;;;;;14.40;99.90;;;;;;5131870;28;20019;-65
2023/05/21 00:57:37;;;;;;;;;;;14.40;99.90;;;;;;5132383;28;20380;-65
2023/05/21 01:00:06;;;;;;;;;;;14.40;99.90;;;;;;5132677;27;20291;-65
2023/05/21 01:02:33;;;;;;;;;;;14.30;99.90;;;;;;5131035;28;19923;-65
2023/05/21 01:04:59;;;;;;;;;;;14.30;99.90;;;;;;5132613;27;20018;-65
2023/05/21 01:07:25;;;;;;;;;;;14.30;99.90;;;;;;5131063;27;19963;-65
2023/05/21 01:09:50;;;;;;;;;;;14.30;99.90;;;;;;5114128;28;19923;-66
2023/05/21 01:12:16;;;;;;;;;;;14.30;99.90;;;;;;5131154;28;19924;-68
2023/05/21 01:14:42;;;;;;;;;;;14.30;99.90;;;;;;5132421;27;20325;-65
2023/05/21 01:17:09;;;;;;;;;;;14.30;99.90;;;;;;5131640;28;19923;-65
2023/05/21 01:19:34;;;;;;;;;;;14.30;99.90;;;;;;5132007;27;19990;-66
2023/05/21 01:22:04;;;;;;;;;;;14.30;99.90;;;;;;5132610;27;20376;-65
2023/05/21 01:24:30;;;;;;;;;;;14.20;99.90;;;;;;5131990;27;19923;-65
2023/05/21 01:26:57;;;;;;;;;;;14.20;99.90;;;;;;5133648;27;19938;-66
2023/05/21 01:29:23;;;;;;;;;;;14.20;99.90;;;;;;5135674;27;19931;-65
2023/05/21 01:31:48;;;;;;;;;;;14.20;99.90;;;;;;5135718;27;19924;-65
2023/05/21 01:34:15;;;;;;;;;;;14.20;99.90;;;;;;5135757;27;19946;-66
2023/05/21 01:36:44;;;;;;;;;;;14.20;99.90;;;;;;5135523;27;19924;-67
2023/05/21 01:39:16;;;;;;;;;;;14.20;99.90;;;;;;5135788;27;19923;-65
2023/05/21 01:41:43;;;;;;;;;;;14.20;99.90;;;;;;5135461;27;20078;-66
2023/05/21 01:44:09;;;;;;;;;;;14.20;99.90;;;;;;5135632;27;19923;-65
2023/05/21 01:46:36;;;;;;;;;;;14.20;99.90;;;;;;5133927;27;20388;-65
2023/05/21 01:49:02;;;;;;;;;;;14.20;99.90;;;;;;5135767;27;19971;-65
2023/05/21 01:51:28;;;;;;;;;;;14.20;99.90;;;;;;5135117;27;19924;-65
2023/05/21 01:53:54;;;;;;;;;;;14.10;99.90;;;;;;5135528;27;19933;-65
2023/05/21 01:56:24;;;;;;;;;;;14.10;99.90;;;;;;5134392;27;19923;-66
2023/05/21 01:58:50;;;;;;;;;;;14.10;99.90;;;;;;5135817;27;20014;-65
2023/05/21 02:01:16;;;;;;;;;;;14.10;99.90;;;;;;5135456;27;19927;-66
2023/05/21 02:03:41;;;;;;;;;;;14.20;99.90;;;;;;5135033;27;20213;-67
2023/05/21 02:06:07;;;;;;;;;;;14.20;99.90;;;;;;5135427;27;19930;-66
2023/05/21 02:08:33;;;;;;;;;;;14.10;99.90;;;;;;5135018;27;19950;-65
2023/05/21 02:10:58;;;;;;;;;;;14.10;99.90;;;;;;5133797;27;19923;-65
2023/05/21 02:13:24;;;;;;;;;;;14.10;99.90;;;;;;5134966;27;19927;-68
2023/05/21 02:15:53;;;;;;;;;;;14.10;99.90;;;;;;5135174;27;19930;-65
2023/05/21 02:18:20;;;;;;;;;;;14.00;99.90;;;;;;5134079;27;19923;-65
2023/05/21 02:20:45;;;;;;;;;;;14.00;99.90;;;;;;5134665;27;19981;-65
2023/05/21 02:23:11;;;;;;;;;;;14.00;99.90;;;;;;5168823;27;20308;-65
2023/05/21 02:25:37;;;;;;;;;;;13.90;99.90;;;;;;5168121;27;19923;-65
2023/05/21 02:28:02;;;;;;;;;;;13.90;99.90;;;;;;5134967;27;19923;-65
2023/05/21 02:30:28;;;;;;;;;;;13.80;99.90;;;;;;5134136;27;20404;-67
2023/05/21 02:32:54;;;;;;;;;;;13.80;99.90;;;;;;5134794;27;20303;-65
2023/05/21 02:35:19;;;;;;;;;;;13.70;99.90;;;;;;5134947;27;19960;-66
2023/05/21 02:37:45;;;;;;;;;;;13.70;99.90;;;;;;5133678;27;19924;-65
2023/05/21 02:40:11;;;;;;;;;;;13.60;99.90;;;;;;5134137;27;20037;-65
2023/05/21 02:42:38;;;;;;;;;;;13.60;99.90;;;;;;5134398;27;19924;-65
2023/05/21 02:45:13;;;;;;;;;;;13.50;99.90;;;;;;5116271;27;19935;-65
2023/05/21 02:47:39;;;;;;;;;;;13.50;99.90;;;;;;5134203;27;19927;-65
2023/05/21 02:50:05;;;;;;;;;;;13.50;99.90;;;;;;5134657;27;20338;-65
2023/05/21 02:52:31;;;;;;;;;;;13.10;99.90;;;;;;5133155;27;19923;-66
2023/05/21 02:54:56;;;;;;;;;;;13.50;99.90;;;;;;5134624;27;20402;-65
2023/05/21 02:57:22;;;;;;;;;;;13.50;99.90;;;;;;5134356;27;20133;-65
2023/05/21 02:59:48;;;;;;;;;;;13.50;99.90;;;;;;5132894;27;19924;-65
2023/05/21 03:02:13;;;;;;;;;;;13.40;99.90;;;;;;5167938;27;19934;-65
2023/05/21 03:04:44;;;;;;;;;;;13.50;99.90;;;;;;5132719;27;20344;-65
2023/05/21 03:07:14;;;;;;;;;;;13.50;99.90;;;;;;5132806;27;20364;-65
2023/05/21 03:09:43;;;;;;;;;;;13.40;99.90;;;;;;5133632;27;19930;-65
2023/05/21 03:12:09;;;;;;;;;;;13.50;99.90;;;;;;5134060;27;19939;-66
2023/05/21 03:14:34;;;;;;;;;;;13.40;99.90;;;;;;5132520;27;19923;-65
2023/05/21 03:17:04;;;;;;;;;;;13.30;99.90;;;;;;5132875;27;19923;-65
2023/05/21 03:19:33;;;;;;;;;;;13.30;99.90;;;;;;5133734;27;19969;-65
2023/05/21 03:22:00;;;;;;;;;;;13.30;99.90;;;;;;5133428;27;19924;-65
2023/05/21 03:24:26;;;;;;;;;;;13.30;99.90;;;;;;5133345;27;19938;-69
2023/05/21 03:26:52;;;;;;;;;;;13.30;99.90;;;;;;5133183;27;20285;-65
2023/05/21 03:29:17;;;;;;;;;;;13.30;99.90;;;;;;5133567;27;19923;-65
2023/05/21 03:31:43;;;;;;;;;;;13.30;99.90;;;;;;5131740;27;20296;-65
2023/05/21 03:34:09;;;;;;;;;;;13.30;99.90;;;;;;5133387;27;19923;-65
2023/05/21 03:36:34;;;;;;;;;;;13.30;99.90;;;;;;5133351;27;19930;-68
2023/05/21 03:39:00;;;;;;;;;;;13.30;99.90;;;;;;5114685;27;19930;-65
2023/05/21 03:41:25;;;;;;;;;;;13.30;99.90;;;;;;5166914;27;19924;-65
2023/05/21 03:43:51;;;;;;;;;;;13.30;99.90;;;;;;5114726;27;20052;-65
2023/05/21 03:46:16;;;;;;;;;;;13.30;99.90;;;;;;5133307;27;19924;-66
2023/05/21 03:48:42;;;;;;;;;;;13.40;99.90;;;;;;5132281;27;20014;-65
2023/05/21 03:51:08;;;;;;;;;;;13.30;99.90;;;;;;5131623;27;19931;-65
2023/05/21 03:53:34;;;;;;;;;;;13.30;99.90;;;;;;5133206;27;20330;-65
2023/05/21 03:56:00;;;;;;;;;;;13.30;99.90;;;;;;5132748;27;19923;-66
2023/05/21 03:58:25;;;;;;;;;;;13.30;99.90;;;;;;5133162;27;20352;-65
2023/05/21 04:00:51;;;;;;;;;;;13.30;99.90;;;;;;5132548;27;20009;-66
2023/05/21 04:03:16;;;;;;;;;;;13.30;99.90;;;;;;5132041;27;19923;-65
2023/05/21 04:05:42;;;;;;;;;;;13.30;99.90;;;;;;5132721;27;19959;-66
2023/05/21 04:08:08;;;;;;;;;;;13.30;99.90;;;;;;5133355;27;19923;-65
2023/05/21 04:10:33;;;;;;;;;;;13.30;99.90;;;;;;5133000;27;19935;-66
2023/05/21 04:12:59;;;;;;;;;;;13.30;99.90;;;;;;5132557;27;19924;-65
2023/05/21 04:15:26;;;;;;;;;;;13.30;99.90;;;;;;5133162;27;19967;-66
2023/05/21 04:17:52;;;;;;;;;;;13.30;99.90;;;;;;5131344;27;19923;-65
2023/05/21 04:20:17;;;;;;;;;;;13.30;99.90;;;;;;5132986;27;20300;-66
2023/05/21 04:22:43;;;;;;;;;;;13.20;99.90;;;;;;5131337;28;19931;-68
2023/05/21 04:25:09;;;;;;;;;;;13.20;99.90;;;;;;5132897;27;20400;-65
2023/05/21 04:27:35;;;;;;;;;;;13.20;99.90;;;;;;5132988;27;19931;-65
2023/05/21 04:30:02;;;;;;;;;;;13.20;99.90;;;;;;5130988;28;19964;-65
2023/05/21 04:32:29;;;;;;;;;;;13.30;99.90;;;;;;5131696;28;19930;-65
2023/05/21 04:34:55;;;;;;;;;;;13.30;99.90;;;;;;5132520;27;19923;-65
2023/05/21 04:37:23;;;;;;;;;;;13.30;99.90;;;;;;5166101;27;20372;-65
2023/05/21 04:39:49;;;;;;;;;;;13.30;99.90;;;;;;5131106;28;20395;-66
2023/05/21 04:42:14;;;;;;;;;;;13.30;99.90;;;;;;5114608;28;19923;-65
2023/05/21 04:44:43;;;;;;;;;;;13.30;99.90;;;;;;5131565;28;20311;-65
2023/05/21 04:47:09;;;;;;;;;;;13.40;99.90;;;;;;5132284;27;19931;-65
2023/05/21 04:49:34;;;;;;;;;;;13.40;99.90;;;;;;5132065;27;19927;-65
2023/05/21 04:52:01;;;;;;;;;;;13.40;99.90;;;;;;5132331;28;20014;-65
2023/05/21 04:54:26;;;;;;;;;;;13.40;99.90;;;;;;5114525;28;19923;-66
2023/05/21 04:56:52;;;;;;;;;;;13.40;99.90;;;;;;5131073;28;19973;-65
2023/05/21 04:59:18;;;;;;;;;;;13.50;99.90;;;;;;5132861;28;19983;-65
2023/05/21 05:01:44;;;;;;;;;;;13.50;99.90;;;;;;5132854;27;20428;-65
2023/05/21 05:04:10;;;;;;;;;;;13.50;99.90;;;;;;5135121;27;19971;-65
2023/05/21 05:06:36;;;;;;;;;;;13.50;99.90;;;;;;5135135;27;19966;-65
2023/05/21 05:09:01;;;;;;;;;;;13.50;99.90;;;;;;5136129;27;19923;-65
2023/05/21 05:11:27;;;;;;;;;;;13.60;99.90;;;;;;5136533;27;19930;-65
2023/05/21 05:13:52;;;;;;;;;;;13.60;99.90;;;;;;5117732;27;19923;-65
2023/05/21 05:16:24;;;;;;;;;;;13.70;99.90;;;;;;5136292;27;19923;-65
2023/05/21 05:18:52;;;;;;;;;;;13.70;99.90;;;;;;5136210;27;19923;-67
2023/05/21 05:21:19;;;;;;;;;;;13.80;99.90;;;;;;5135262;27;20368;-65
2023/05/21 05:23:44;;;;;;;;;;;13.90;99.90;;;;;;5136240;27;19970;-65
2023/05/21 05:26:10;;;;;;;;;;;14.00;99.90;;;;;;5135619;27;19923;-65
2023/05/21 05:28:36;;;;;;;;;;;14.10;99.90;;;;;;5136005;27;20356;-65
2023/05/21 05:31:01;;;;;;;;;;;14.20;99.90;;;;;;5135560;27;19923;-65
2023/05/21 05:33:27;;;;;;;;;;;14.30;99.90;;;;;;5134860;27;19924;-65
2023/05/21 05:35:52;;;;;;;;;;;14.40;99.90;;;;;;5135475;27;19980;-67
2023/05/21 05:38:18;;;;;;;;;;;14.80;99.90;;;;;;5117597;27;20016;-65
2023/05/21 05:40:44;;;;;;;;;;;15.10;99.90;;;;;;5135874;27;19934;-65
2023/05/21 05:43:09;;;;;;;;;;;15.40;99.90;;;;;;5135073;27;19973;-65
2023/05/21 05:45:35;;;;;;;;;;;15.80;99.90;;;;;;5135629;27;19975;-64
2023/05/21 05:48:00;;;;;;;;;;;16.20;99.90;;;;;;5134739;27;20022;-64
2023/05/21 05:50:26;;;;;;;;;;;16.70;99.90;;;;;;5135384;27;19930;-65
2023/05/21 05:52:52;;;;;;;;;;;17.00;99.90;;;;;;5100629;27;19923;-65
2023/05/21 05:55:17;;;;;;;;;;;17.30;99.90;;;;;;5135244;27;19923;-64
2023/05/21 05:57:43;;;;;;;;;;;17.50;99.90;;;;;;5135134;27;20443;-64
2023/05/21 06:00:09;;;;;;;;;;;17.70;99.90;;;;;;5133935;27;19998;-65
2023/05/21 06:02:35;;;;;;;;;;;17.80;99.90;;;;;;5134495;27;19946;-65
2023/05/21 06:05:01;;;;;;;;;;;17.80;99.90;;;;;;5134944;27;19966;-65
2023/05/21 06:07:27;;;;;;;;;;;17.80;99.90;;;;;;5135298;27;19923;-65
2023/05/21 06:09:52;;;;;;;;;;;17.90;99.90;;;;;;5134214;27;19930;-65
2023/05/21 06:12:18;;;;;;;;;;;17.90;99.90;;;;;;5134954;27;19924;-65
2023/05/21 06:14:45;;;;;;;;;;;17.90;99.90;;;;;;5135391;27;19980;-65
2023/05/21 06:17:10;;;;;;;;;;;17.80;99.90;;;;;;5135008;27;19923;-65
2023/05/21 06:19:36;;;;;;;;;;;17.80;99.90;;;;;;5135127;27;19930;-65
2023/05/21 06:22:02;;;;;;;;;;;17.90;99.90;;;;;;5133884;27;19930;-66
2023/05/21 06:24:27;;;;;;;;;;;17.90;99.90;;;;;;5134087;27;19943;-65
2023/05/21 06:26:53;;;;;;;;;;;17.80;99.90;;;;;;5134096;27;19923;-63
2023/05/21 06:29:18;;;;;;;;;;;18.00;99.90;;;;;;5134184;27;20466;-64
2023/05/21 06:31:44;;;;;;;;;;;18.10;99.90;;;;;;5116142;27;19923;-65
2023/05/21 06:34:10;;;;;;;;;;;18.30;99.90;;;;;;5133743;27;20076;-65
2023/05/21 06:36:36;;;;;;;;;;;18.50;99.90;;;;;;5134852;27;19923;-66
2023/05/21 06:39:07;;;;;;;;;;;18.50;99.90;;;;;;5134690;27;20010;-68
2023/05/21 06:41:42;;;;;;;;;;;18.40;99.90;;;;;;5134237;27;19927;-67
2023/05/21 06:44:08;;;;;;;;;;;18.20;99.90;;;;;;5134455;27;19923;-69
2023/05/21 06:46:35;;;;;;;;;;;18.20;99.90;;;;;;5134866;27;20281;-66
2023/05/21 06:49:01;;;;;;;;;;;18.10;99.90;;;;;;5133513;27;19988;-66
2023/05/21 06:51:29;;;;;;;;;;;18.10;99.90;;;;;;5117169;27;19930;-64
2023/05/21 06:53:55;;;;;;;;;;;18.30;99.90;;;;;;5133024;27;20026;-64
2023/05/21 06:56:21;;;;;;;;;;;18.60;99.90;;;;;;5133172;27;19924;-65
2023/05/21 06:58:46;;;;;;;;;;;18.90;99.90;;;;;;5133552;27;19930;-65
2023/05/21 07:01:12;;;;;;;;;;;19.10;99.90;;;;;;5134060;27;20365;-64
2023/05/21 07:03:38;;;;;;;;;;;19.30;99.90;;;;;;5134265;27;19975;-64
2023/05/21 07:06:03;;;;;;;;;;;19.40;99.90;;;;;;5134505;27;19928;-66
2023/05/21 07:08:29;;;;;;;;;;;19.50;99.90;;;;;;5115424;27;19923;-65
2023/05/21 07:10:57;;;;;;;;;;;19.50;99.90;;;;;;5134174;27;19931;-65
2023/05/21 07:13:23;;;;;;;;;;;19.70;99.90;;;;;;5132559;27;19930;-65
2023/05/21 07:15:49;;;;;;;;;;;19.60;99.90;;;;;;5134078;27;19923;-64
2023/05/21 07:18:15;;;;;;;;;;;19.60;99.90;;;;;;5133689;27;19924;-65
2023/05/21 07:20:41;;;;;;;;;;;19.80;99.90;;;;;;5133804;27;19931;-65
2023/05/21 07:23:06;;;;;;;;;;;19.80;99.90;;;;;;5115544;27;19923;-66
2023/05/21 07:25:32;;;;;;;;;;;19.60;99.90;;;;;;5132865;27;19923;-64
2023/05/21 07:27:57;;;;;;;;;;;19.40;99.90;;;;;;5133479;27;20023;-65
2023/05/21 07:30:23;;;;;;;;;;;19.30;99.90;;;;;;5132971;27;19927;-64
2023/05/21 07:32:49;;;;;;;;;;;19.20;99.90;;;;;;5133547;27;20432;-64
2023/05/21 07:35:14;;;;;;;;;;;19.10;99.90;;;;;;5132118;27;19923;-64
2023/05/21 07:37:40;;;;;;;;;;;19.00;99.90;;;;;;5132518;27;19945;-64
2023/05/21 07:40:06;;;;;;;;;;;18.90;99.90;;;;;;5133556;27;19923;-65
2023/05/21 07:42:32;;;;;;;;;;;18.90;99.90;;;;;;5131619;27;20348;-66
2023/05/21 07:44:57;;;;;;;;;;;18.80;99.90;;;;;;5133482;27;19923;-64
2023/05/21 07:47:23;;;;;;;;;;;18.80;99.90;;;;;;5131832;27;19929;-64
2023/05/21 07:49:49;;;;;;;;;;;18.70;99.90;;;;;;5132947;27;19930;-64
2023/05/21 07:52:14;;;;;;;;;;;18.70;99.90;;;;;;5132606;27;19924;-63
2023/05/21 07:54:40;;;;;;;;;;;18.60;99.90;;;;;;5131891;27;19927;-64
2023/05/21 07:57:05;;;;;;;;;;;18.70;99.90;;;;;;5131570;27;20395;-65
2023/05/21 07:59:32;;;;;;;;;;;19.10;99.90;;;;;;5132626;27;20132;-64
2023/05/21 08:01:58;;;;;;;;;;;19.30;99.90;;;;;;5131999;27;19923;-65
2023/05/21 08:04:23;;;;;;;;;;;19.50;99.90;;;;;;5131070;27;19949;-64
2023/05/21 08:06:49;;;;;;;;;;;19.60;99.90;;;;;;5132750;27;19930;-64
2023/05/21 08:09:15;;;;;;;;;;;19.50;99.90;;;;;;5133382;27;19931;-67
2023/05/21 08:11:41;;;;;;;;;;;19.40;99.90;;;;;;5132399;27;19927;-65
2023/05/21 08:14:06;;;;;;;;;;;19.30;99.90;;;;;;5131970;27;20421;-64
2023/05/21 08:16:32;;;;;;;;;;;19.40;99.90;;;;;;5131484;27;20007;-63
2023/05/21 08:18:57;;;;;;;;;;;19.50;99.90;;;;;;5133164;27;19927;-64
2023/05/21 08:21:23;;;;;;;;;;;19.70;99.90;;;;;;5132764;27;20164;-65
2023/05/21 08:23:51;;;;;;;;;;;19.80;99.90;;;;;;5133051;28;20268;-67
2023/05/21 08:26:16;;;;;;;;;;;19.70;99.90;;;;;;5132923;27;20360;-67
2023/05/21 08:28:42;;;;;;;;;;;19.70;99.90;;;;;;5131600;28;19978;-64
2023/05/21 08:31:07;;;;;;;;;;;19.80;99.90;;;;;;5132742;27;19923;-65
2023/05/21 08:33:37;;;;;;;;;;;19.80;99.90;;;;;;5131524;28;19991;-65
2023/05/21 08:36:06;;;;;;;;;;;20.00;99.90;;;;;;5132987;27;19970;-66
2023/05/21 08:38:31;;;;;;;;;;;20.20;99.90;;;;;;5134050;27;20633;-70
2023/05/21 08:40:57;;;;;;;;;;;20.00;99.90;;;;;;5133761;27;19923;-70
2023/05/21 08:43:26;;;;;;;;;;;20.00;99.90;;;;;;5169046;27;19924;-66
2023/05/21 08:45:56;;;;;;;;;;;20.00;99.90;;;;;;5135826;27;19927;-66
2023/05/21 08:48:22;;;;;;;;;;;19.90;99.90;;;;;;5135921;27;19923;-66
2023/05/21 08:50:49;;;;;;;;;;;20.10;99.90;;;;;;5134908;27;19923;-64
2023/05/21 08:53:15;;;;;;;;;;;20.00;99.90;;;;;;5136686;27;19927;-65
2023/05/21 08:55:41;;;;;;;;;;;20.00;99.90;;;;;;5136047;27;20518;-66
2023/05/21 08:58:07;;;;;;;;;;;20.00;99.90;;;;;;5170130;27;19923;-65
2023/05/21 09:00:32;;;;;;;;;;;20.00;99.90;;;;;;5136378;27;19930;-65
2023/05/21 09:03:00;;;;;;;;;;;20.10;99.90;;;;;;5136906;27;19970;-65
2023/05/21 09:05:26;;;;;;;;;;;20.30;99.90;;;;;;5136306;27;19931;-65
2023/05/21 09:07:59;;;;;;;;;;;20.60;99.90;;;;;;5136720;27;19931;-65
2023/05/21 09:10:28;;;;;;;;;;;20.90;99.90;;;;;;5135858;27;19986;-68
2023/05/21 09:12:54;;;;;;;;;;;;;;;;;;5136667;27;20390;-68
2023/05/21 09:15:20;;;;;;;;;;;20.90;99.90;;;;;;5135782;27;19930;-67
2023/05/21 09:17:47;;;;;;;;;;;21.20;99.90;;;;;;5133904;27;20300;-67
2023/05/21 09:20:13;;;;;;;;;;;21.10;99.90;;;;;;5136255;27;19931;-67
2023/05/21 09:22:42;;;;;;;;;;;20.90;99.90;;;;;;5135901;27;20408;-64
2023/05/21 09:25:11;;;;;;;;;;;20.80;99.90;;;;;;5135461;27;19923;-64
2023/05/21 09:27:37;;;;;;;;;;;21.00;99.90;;;;;;5136010;27;19923;-64
2023/05/21 09:30:04;;;;;;;;;;;21.10;99.90;;;;;;5136150;27;19953;-64
2023/05/21 09:32:29;;;;;;;;;;;21.30;99.90;;;;;;5135095;27;19924;-63
2023/05/21 09:34:55;;;;;;;;;;;21.40;99.90;;;;;;5136323;27;20437;-64
2023/05/21 09:37:21;;;;;;;;;;;21.50;99.90;;;;;;5135949;27;20011;-63
2023/05/21 09:39:50;;;;;;;;;;;21.70;99.90;;;;;;5135866;27;19974;-63
2023/05/21 09:42:19;;;;;;;;;;;21.60;99.90;;;;;;5135001;27;19932;-61
2023/05/21 09:44:46;;;;;;;;;;;21.50;99.90;;;;;;5135732;27;19974;-60
2023/05/21 09:47:11;;;;;;;;;;;21.50;99.90;;;;;;5134757;27;19937;-61
2023/05/21 09:49:37;;;;;;;;;;;21.40;99.90;;;;;;5135018;27;19927;-60
2023/05/21 09:52:03;;;;;;;;;;;21.30;99.90;;;;;;5135522;27;20020;-61
2023/05/21 09:54:32;;;;;;;;;;;21.30;99.90;;;;;;5135790;27;20037;-65
2023/05/21 09:57:01;;;;;;;;;;;21.20;99.90;;;;;;5134952;27;20391;-60
2023/05/21 09:59:39;;;;;;;;;;;21.10;99.90;;;;;;5134115;27;20389;-60
2023/05/21 10:02:15;;;;;;;;;;;21.00;99.90;;;;;;5134996;27;20350;-60
2023/05/21 10:04:41;;;;;;;;;;;20.90;99.90;;;;;;5130946;27;20011;-62
2023/05/21 10:07:07;;;;;;;;;;;20.90;99.90;;;;;;5134257;27;20269;-65
2023/05/21 10:09:33;;;;;;;;;;;20.80;99.90;;;;;;5134493;27;20014;-64
2023/05/21 10:11:58;;;;;;;;;;;20.80;99.90;;;;;;5133634;27;20399;-63
2023/05/21 10:14:26;;;;;;;;;;;20.80;99.90;;;;;;5134434;27;19923;-63
2023/05/21 10:16:53;;;;;;;;;;;20.80;99.90;;;;;;5134111;27;20111;-62
2023/05/21 10:19:19;;;;;;;;;;;21.00;99.90;;;;;;5133702;27;19923;-62
2023/05/21 10:21:44;;;;;;;;;;;21.10;99.90;;;;;;5132864;27;19930;-63
2023/05/21 10:24:10;;;;;;;;;;;21.10;99.90;;;;;;5116673;27;19923;-63
2023/05/21 10:26:37;;;;;;;;;;;21.00;99.90;;;;;;5134561;27;20364;-63
2023/05/21 10:29:02;;;;;;;;;;;20.90;99.90;;;;;;5133494;27;19923;-62
2023/05/21 10:31:28;;;;;;;;;;;20.80;99.90;;;;;;5133697;27;19930;-63
2023/05/21 10:33:54;;;;;;;;;;;20.70;99.90;;;;;;5134186;27;20074;-62
2023/05/21 10:36:23;;;;;;;;;;;20.60;99.90;;;;;;5134634;27;20035;-63
2023/05/21 10:38:49;;;;;;;;;;;20.50;99.90;;;;;;5134522;27;19923;-62
2023/05/21 10:41:16;;;;;;;;;;;20.50;99.90;;;;;;5133914;27;19974;-62
2023/05/21 10:43:48;;;;;;;;;;;20.60;99.90;;;;;;5115560;27;19923;-62
2023/05/21 10:46:46;;;;;;;;;;;20.60;99.90;;;;;;5133024;27;20350;-62
2023/05/21 10:49:18;;;;;;;;;;;20.50;99.90;;;;;;5110059;27;19923;-63
2023/05/21 10:51:57;;;;;;;;;;;20.50;99.90;;;;;;5133571;27;20010;-62
2023/05/21 10:54:40;;;;;;;;;;;20.60;99.90;;;;;;5134171;27;19930;-63
2023/05/21 10:57:29;;;;;;;;;;;20.60;99.90;;;;;;5134725;27;20253;-63
2023/05/21 10:59:56;;;;;;;;;;;20.50;99.90;;;;;;5112254;27;19970;-63
2023/05/21 11:02:24;;;;;;;;;;;20.70;99.90;;;;;;5150261;27;20012;-61
2023/05/21 11:04:57;;;;;;;;;;;20.80;99.90;;;;;;5132804;27;19924;-61
2023/05/21 11:07:43;;;;;;;;;;;20.70;99.90;;;;;;5133056;27;19924;-62
2023/05/21 11:10:27;;;;;;;;;;;20.70;99.90;;;;;;5133271;27;19930;-62
2023/05/21 11:13:11;;;;;;;;;;;20.60;99.90;;;;;;5133212;27;19923;-63
2023/05/21 11:15:55;;;;;;;;;;;20.60;99.90;;;;;;5133665;27;19923;-63
2023/05/21 11:18:21;;;;;;;;;;;20.80;99.90;;;;;;5133744;27;19927;-63
2023/05/21 11:20:50;;;;;;;;;;;20.80;99.90;;;;;;5133766;27;19923;-63
2023/05/21 11:23:16;;;;;;;;;;;20.80;99.90;;;;;;5132482;27;19931;-63
2023/05/21 11:25:41;;;;;;;;;;;20.90;99.90;;;;;;5132632;27;19924;-63
2023/05/21 11:28:08;;;;;;;;;;;20.80;99.90;;;;;;5133337;27;19930;-61
2023/05/21 11:30:34;;;;;;;;;;;20.80;99.90;;;;;;5113875;27;19924;-63
2023/05/21 11:33:09;;;;;;;;;;;20.80;99.90;;;;;;5131953;27;19988;-61
2023/05/21 11:35:44;;;;;;;;;;;20.90;99.90;;;;;;5133044;27;19928;-61
2023/05/21 11:38:10;;;;;;;;;;;21.00;99.90;;;;;;5133689;27;19927;-65
2023/05/21 11:40:36;;;;;;;;;;;21.00;99.90;;;;;;5132791;27;19923;-62
2023/05/21 11:43:02;;;;;;;;;;;20.90;99.90;;;;;;5133290;27;20250;-62
2023/05/21 11:45:29;;;;;;;;;;;20.80;99.90;;;;;;5133602;27;19946;-62
2023/05/21 11:47:55;;;;;;;;;;;20.70;99.90;;;;;;5132068;27;19923;-62
2023/05/21 11:50:21;;;;;;;;;;;20.70;99.90;;;;;;5133592;27;19929;-62
2023/05/21 11:52:48;;;;;;;;;;;20.70;99.90;;;;;;5133423;27;19989;-64
2023/05/21 11:55:14;;;;;;;;;;;20.80;99.90;;;;;;5133120;27;20107;-63
2023/05/21 11:57:41;;;;;;;;;;;20.70;99.90;;;;;;5132347;27;19924;-63
2023/05/21 12:00:12;;;;;;;;;;;20.70;99.90;;;;;;5133038;27;20419;-63
2023/05/21 12:02:42;;;;;;;;;;;20.70;99.90;;;;;;5133464;27;19931;-63
2023/05/21 12:05:08;;;;;;;;;;;20.50;99.90;;;;;;5132849;27;19920;-63
2023/05/21 12:07:34;;;;;;;;;;;20.30;99.90;;;;;;5131827;27;19927;-63
2023/05/21 12:09:59;;;;;;;;;;;20.20;99.90;;;;;;5132906;27;19924;-64
2023/05/21 12:12:26;;;;;;;;;;;20.30;99.90;;;;;;5133166;27;19923;-63
2023/05/21 12:14:52;;;;;;;;;;;20.30;99.90;;;;;;5131578;27;19931;-63
2023/05/21 12:17:19;;;;;;;;;;;20.30;99.90;;;;;;5132105;27;19930;-63
2023/05/21 12:19:45;;;;;;;;;;;20.20;99.90;;;;;;5132304;27;19931;-62
2023/05/21 12:22:11;;;;;;;;;;;20.10;99.90;;;;;;5132973;27;20027;-63
2023/05/21 12:24:37;;;;;;;;;;;20.20;99.90;;;;;;5132946;27;19923;-63
2023/05/21 12:27:08;;;;;;;;;;;20.30;99.90;;;;;;5132800;27;19992;-63
2023/05/21 12:29:37;;;;;;;;;;;20.30;99.90;;;;;;5132883;27;20396;-62
2023/05/21 12:32:05;;;;;;;;;;;20.30;99.90;;;;;;5132838;27;19924;-62
2023/05/21 12:34:43;;;;;;;;;;;20.30;99.90;;;;;;5132785;27;20323;-63
2023/05/21 12:37:20;;;;;;;;;;;20.30;99.90;;;;;;5131593;28;20015;-63
2023/05/21 12:39:47;;;;;;;;;;;20.20;99.90;;;;;;5133158;27;20338;-63
2023/05/21 12:42:13;;;;;;;;;;;20.20;99.90;;;;;;5132476;27;19980;-64
2023/05/21 12:44:42;;;;;;;;;;;20.30;99.90;;;;;;5130481;27;19924;-63
2023/05/21 12:47:08;;;;;;;;;;;20.30;99.90;;;;;;5130052;28;20287;-62
2023/05/21 12:49:40;;;;;;;;;;;20.20;99.90;;;;;;5114404;28;19927;-62
2023/05/21 12:52:12;;;;;;;;;;;20.20;99.90;;;;;;5132164;28;19976;-63
2023/05/21 12:54:39;;;;;;;;;;;20.10;99.90;;;;;;5131405;28;19949;-63
2023/05/21 12:57:10;;;;;;;;;;;20.10;99.90;;;;;;5132408;27;19924;-63
2023/05/21 12:59:46;;;;;;;;;;;20.10;99.90;;;;;;5132614;28;19923;-63
2023/05/21 13:02:15;;;;;;;;;;;20.10;99.90;;;;;;5132436;27;19938;-63
2023/05/21 13:04:41;;;;;;;;;;;20.10;99.90;;;;;;5131427;28;19984;-63
2023/05/21 13:07:07;;;;;;;;;;;20.00;99.90;;;;;;5132292;28;19970;-63
2023/05/21 13:09:32;;;;;;;;;;;20.00;99.90;;;;;;5131573;28;19935;-63
2023/05/21 13:11:58;;;;;;;;;;;20.10;99.90;;;;;;5132105;27;19924;-64
2023/05/21 13:14:23;;;;;;;;;;;20.20;99.90;;;;;;5114711;28;20022;-63
2023/05/21 13:16:49;;;;;;;;;;;20.20;99.90;;;;;;5114321;28;20472;-63
2023/05/21 13:19:15;;;;;;;;;;;20.10;99.90;;;;;;5131242;28;19938;-63
2023/05/21 13:21:40;;;;;;;;;;;20.10;99.90;;;;;;5131658;27;19930;-63
2023/05/21 13:24:06;;;;;;;;;;;20.10;99.90;;;;;;5117137;27;19930;-63
2023/05/21 13:26:32;;;;;;;;;;;20.20;99.90;;;;;;5136513;27;19924;-63
2023/05/21 13:28:57;;;;;;;;;;;20.20;99.90;;;;;;5136096;27;19976;-64
2023/05/21 13:31:23;;;;;;;;;;;20.20;99.90;;;;;;5134754;27;19927;-63
2023/05/21 13:33:48;;;;;;;;;;;20.30;99.90;;;;;;5135023;27;19924;-64
2023/05/21 13:36:14;;;;;;;;;;;20.60;99.90;;;;;;5135892;27;20361;-64
2023/05/21 13:38:40;;;;;;;;;;;20.30;99.90;;;;;;5136190;27;20018;-63
2023/05/21 13:41:05;;;;;;;;;;;20.30;99.90;;;;;;5134823;27;19924;-63
2023/05/21 13:43:31;;;;;;;;;;;20.40;99.90;;;;;;5136096;27;20352;-63
2023/05/21 13:45:56;;;;;;;;;;;20.40;99.90;;;;;;5134972;27;19927;-63
2023/05/21 13:48:22;;;;;;;;;;;20.40;99.90;;;;;;5117050;27;19954;-63
2023/05/21 13:50:48;;;;;;;;;;;20.50;99.90;;;;;;5136095;27;19949;-63
2023/05/21 13:53:13;;;;;;;;;;;20.60;99.90;;;;;;5116988;27;20365;-63
2023/05/21 13:55:39;;;;;;;;;;;20.60;99.90;;;;;;5134916;27;19930;-65
2023/05/21 13:58:04;;;;;;;;;;;20.60;99.90;;;;;;5134106;27;19930;-65
2023/05/21 14:00:30;;;;;;;;;;;20.60;99.90;;;;;;5135832;27;19923;-64
2023/05/21 14:02:55;;;;;;;;;;;20.50;99.90;;;;;;5135781;27;19975;-64
2023/05/21 14:05:21;;;;;;;;;;;20.60;99.90;;;;;;5135264;27;19928;-67
2023/05/21 14:07:47;;;;;;;;;;;20.70;99.90;;;;;;5135915;27;19923;-67
2023/05/21 14:10:13;;;;;;;;;;;20.80;99.90;;;;;;5133665;27;19923;-67
2023/05/21 14:12:39;;;;;;;;;;;20.80;99.90;;;;;;5133875;27;19930;-66
2023/05/21 14:15:05;;;;;;;;;;;20.80;99.90;;;;;;5135516;27;19928;-66
2023/05/21 14:17:31;;;;;;;;;;;20.90;99.90;;;;;;5135408;27;19923;-66